Shawmut, Montana
Current Conditions -  °F | °C
As of 3:55 AM on Monday 20 Oct 2014 (Local Time) from KMVH Reporting Station
Clear Clear  
Wind Chill: 46°   Ceiling: Unl
Heat Index: 48°   Visibility: 10mi
Dew Point: 30°   Wind: 6mph
Humidity: 50%   Direction: 320°NW
Pressure: 29.96"   Gusts: NA
Location:  46.35°N, 109.52°W
Report Text: KMVH 200955Z AUTO 32005KT 10SM CLR 09/M01 A2996 RMK A01
Loading
Personal Weather Stations






























Interactive Weather Map
Tropical Storm Tracking
New forecast layout! Learn more

10-Day Weather Forecast

Advertisements
Track Severe Weather on mobile